sensor_id;sensor_type;location;lat;lon;timestamp;pressure;altitude;pressure_sealevel;temperature;humidity
24762;BME280;12865;51.934;10.330;2022-07-23T00:02:16;99353.88;;;16.38;100.00
24762;BME280;12865;51.934;10.330;2022-07-23T00:05:02;99359.41;;;16.45;100.00
24762;BME280;12865;51.934;10.330;2022-07-23T00:07:48;99355.88;;;16.44;100.00
24762;BME280;12865;51.934;10.330;2022-07-23T00:10:34;99369.81;;;16.48;100.00
24762;BME280;12865;51.934;10.330;2022-07-23T00:13:19;99376.38;;;16.54;100.00
24762;BME280;12865;51.934;10.330;2022-07-23T00:16:05;99400.91;;;16.59;100.00
24762;BME280;12865;51.934;10.330;2022-07-23T00:18:51;99393.84;;;16.49;100.00
24762;BME280;12865;51.934;10.330;2022-07-23T00:21:37;99386.94;;;16.55;100.00
24762;BME280;12865;51.934;10.330;2022-07-23T00:24:22;99389.28;;;16.58;100.00
24762;BME280;12865;51.934;10.330;2022-07-23T00:27:08;99393.31;;;16.70;100.00
24762;BME280;12865;51.934;10.330;2022-07-23T00:29:54;99388.75;;;16.71;100.00
24762;BME280;12865;51.934;10.330;2022-07-23T00:32:50;99380.16;;;16.75;100.00
24762;BME280;12865;51.934;10.330;2022-07-23T00:35:38;99368.38;;;16.76;100.00
24762;BME280;12865;51.934;10.330;2022-07-23T00:38:25;99363.66;;;16.78;100.00
24762;BME280;12865;51.934;10.330;2022-07-23T00:41:11;99358.94;;;16.80;100.00
24762;BME280;12865;51.934;10.330;2022-07-23T00:44:14;99363.13;;;16.83;100.00
24762;BME280;12865;51.934;10.330;2022-07-23T00:47:00;99365.88;;;16.75;100.00
24762;BME280;12865;51.934;10.330;2022-07-23T00:49:46;99353.75;;;16.71;100.00
24762;BME280;12865;51.934;10.330;2022-07-23T00:52:33;99359.66;;;16.74;100.00
24762;BME280;12865;51.934;10.330;2022-07-23T00:55:19;99368.09;;;16.63;100.00
24762;BME280;12865;51.934;10.330;2022-07-23T00:58:05;99384.06;;;16.57;100.00
24762;BME280;12865;51.934;10.330;2022-07-23T01:00:51;99374.84;;;16.51;100.00
24762;BME280;12865;51.934;10.330;2022-07-23T01:03:37;99370.63;;;16.48;100.00
24762;BME280;12865;51.934;10.330;2022-07-23T01:06:23;99366.75;;;16.59;100.00
24762;BME280;12865;51.934;10.330;2022-07-23T01:09:08;99355.97;;;16.59;100.00
24762;BME280;12865;51.934;10.330;2022-07-23T01:11:54;99331.91;;;16.58;100.00
24762;BME280;12865;51.934;10.330;2022-07-23T01:14:40;99309.03;;;16.62;100.00
24762;BME280;12865;51.934;10.330;2022-07-23T01:17:26;99310.56;;;16.64;100.00
24762;BME280;12865;51.934;10.330;2022-07-23T01:20:12;99319.47;;;16.65;100.00
24762;BME280;12865;51.934;10.330;2022-07-23T01:22:58;99324.34;;;16.61;100.00
24762;BME280;12865;51.934;10.330;2022-07-23T01:25:54;99315.47;;;16.61;100.00
24762;BME280;12865;51.934;10.330;2022-07-23T01:28:40;99320.16;;;16.67;100.00
24762;BME280;12865;51.934;10.330;2022-07-23T01:31:26;99336.47;;;16.65;100.00
24762;BME280;12865;51.934;10.330;2022-07-23T01:34:12;99341.19;;;16.63;100.00
24762;BME280;12865;51.934;10.330;2022-07-23T01:36:57;99339.31;;;16.64;100.00
24762;BME280;12865;51.934;10.330;2022-07-23T01:39:43;99335.97;;;16.62;100.00
24762;BME280;12865;51.934;10.330;2022-07-23T01:42:29;99335.28;;;16.60;100.00
24762;BME280;12865;51.934;10.330;2022-07-23T01:45:14;99319.66;;;16.55;100.00
24762;BME280;12865;51.934;10.330;2022-07-23T01:48:00;99325.06;;;16.47;100.00
24762;BME280;12865;51.934;10.330;2022-07-23T01:50:47;99322.19;;;16.48;100.00
24762;BME280;12865;51.934;10.330;2022-07-23T01:53:33;99324.72;;;16.50;100.00
24762;BME280;12865;51.934;10.330;2022-07-23T01:56:19;99316.47;;;16.52;100.00
24762;BME280;12865;51.934;10.330;2022-07-23T01:59:06;99305.72;;;16.52;100.00
24762;BME280;12865;51.934;10.330;2022-07-23T02:01:52;99317.78;;;16.56;100.00
24762;BME280;12865;51.934;10.330;2022-07-23T02:04:38;99313.09;;;16.58;100.00
24762;BME280;12865;51.934;10.330;2022-07-23T02:07:23;99317.44;;;16.59;100.00
24762;BME280;12865;51.934;10.330;2022-07-23T02:10:09;99314.63;;;16.60;100.00
24762;BME280;12865;51.934;10.330;2022-07-23T02:12:55;99315.78;;;16.58;100.00
24762;BME280;12865;51.934;10.330;2022-07-23T02:15:41;99321.50;;;16.55;100.00
24762;BME280;12865;51.934;10.330;2022-07-23T02:18:27;99324.72;;;16.50;100.00
24762;BME280;12865;51.934;10.330;2022-07-23T02:21:12;99325.22;;;16.54;100.00
24762;BME280;12865;51.934;10.330;2022-07-23T02:23:58;99320.47;;;16.56;100.00
24762;BME280;12865;51.934;10.330;2022-07-23T02:26:44;99300.81;;;16.55;100.00
24762;BME280;12865;51.934;10.330;2022-07-23T02:29:30;99286.88;;;16.52;100.00
24762;BME280;12865;51.934;10.330;2022-07-23T02:32:15;99307.19;;;16.62;100.00
24762;BME280;12865;51.934;10.330;2022-07-23T02:35:02;99323.56;;;16.44;100.00
24762;BME280;12865;51.934;10.330;2022-07-23T02:37:48;99317.88;;;16.39;100.00
24762;BME280;12865;51.934;10.330;2022-07-23T02:40:34;99314.34;;;16.39;100.00
24762;BME280;12865;51.934;10.330;2022-07-23T02:43:19;99307.13;;;16.39;100.00
24762;BME280;12865;51.934;10.330;2022-07-23T02:46:05;99301.88;;;16.46;100.00
24762;BME280;12865;51.934;10.330;2022-07-23T02:48:51;99309.28;;;16.44;100.00
24762;BME280;12865;51.934;10.330;2022-07-23T02:51:36;99319.75;;;16.39;100.00
24762;BME280;12865;51.934;10.330;2022-07-23T02:54:22;99321.22;;;16.41;100.00
24762;BME280;12865;51.934;10.330;2022-07-23T02:57:08;99328.00;;;16.29;100.00
24762;BME280;12865;51.934;10.330;2022-07-23T02:59:53;99330.22;;;16.18;100.00
24762;BME280;12865;51.934;10.330;2022-07-23T03:02:39;99343.00;;;16.16;100.00
24762;BME280;12865;51.934;10.330;2022-07-23T03:05:25;99358.00;;;16.10;100.00
24762;BME280;12865;51.934;10.330;2022-07-23T03:08:10;99362.84;;;16.06;100.00
24762;BME280;12865;51.934;10.330;2022-07-23T03:10:56;99355.63;;;16.07;100.00
24762;BME280;12865;51.934;10.330;2022-07-23T03:13:42;99366.72;;;16.12;100.00
24762;BME280;12865;51.934;10.330;2022-07-23T03:16:28;99370.59;;;16.18;100.00
24762;BME280;12865;51.934;10.330;2022-07-23T03:19:13;99366.34;;;16.23;100.00
24762;BME280;12865;51.934;10.330;2022-07-23T03:21:59;99366.84;;;16.27;100.00
24762;BME280;12865;51.934;10.330;2022-07-23T03:24:45;99347.50;;;16.31;100.00
24762;BME280;12865;51.934;10.330;2022-07-23T03:27:39;99346.31;;;16.34;100.00
24762;BME280;12865;51.934;10.330;2022-07-23T03:30:25;99339.75;;;16.36;100.00
24762;BME280;12865;51.934;10.330;2022-07-23T03:33:11;99337.72;;;16.38;100.00
24762;BME280;12865;51.934;10.330;2022-07-23T03:35:56;99337.91;;;16.37;100.00
24762;BME280;12865;51.934;10.330;2022-07-23T03:38:42;99353.88;;;16.38;100.00
24762;BME280;12865;51.934;10.330;2022-07-23T03:41:28;99336.72;;;16.39;100.00
24762;BME280;12865;51.934;10.330;2022-07-23T03:44:13;99323.91;;;16.41;100.00
24762;BME280;12865;51.934;10.330;2022-07-23T03:46:59;99322.59;;;16.37;100.00
24762;BME280;12865;51.934;10.330;2022-07-23T03:49:45;99316.19;;;16.38;100.00
24762;BME280;12865;51.934;10.330;2022-07-23T03:52:31;99313.66;;;16.45;100.00
24762;BME280;12865;51.934;10.330;2022-07-23T03:55:16;99324.41;;;16.45;100.00
24762;BME280;12865;51.934;10.330;2022-07-23T03:58:02;99328.78;;;16.46;100.00
24762;BME280;12865;51.934;10.330;2022-07-23T04:00:48;99335.50;;;16.42;100.00
24762;BME280;12865;51.934;10.330;2022-07-23T04:03:34;99321.06;;;16.43;100.00
24762;BME280;12865;51.934;10.330;2022-07-23T04:06:19;99326.13;;;16.38;100.00
24762;BME280;12865;51.934;10.330;2022-07-23T04:09:05;99336.38;;;16.34;100.00
24762;BME280;12865;51.934;10.330;2022-07-23T04:11:51;99335.75;;;16.24;100.00
24762;BME280;12865;51.934;10.330;2022-07-23T04:14:37;99347.53;;;16.23;100.00
24762;BME280;12865;51.934;10.330;2022-07-23T04:17:22;99339.78;;;16.20;100.00
24762;BME280;12865;51.934;10.330;2022-07-23T04:20:08;99332.91;;;16.26;100.00
24762;BME280;12865;51.934;10.330;2022-07-23T04:22:54;99311.84;;;16.29;100.00
24762;BME280;12865;51.934;10.330;2022-07-23T04:25:40;99298.91;;;16.33;100.00
24762;BME280;12865;51.934;10.330;2022-07-23T04:28:25;99282.78;;;16.33;100.00
24762;BME280;12865;51.934;10.330;2022-07-23T04:31:11;99319.53;;;16.40;100.00
24762;BME280;12865;51.934;10.330;2022-07-23T04:33:57;99349.06;;;16.26;100.00
24762;BME280;12865;51.934;10.330;2022-07-23T04:36:43;99341.44;;;16.29;100.00
24762;BME280;12865;51.934;10.330;2022-07-23T04:39:28;99335.06;;;16.30;100.00
24762;BME280;12865;51.934;10.330;2022-07-23T04:42:14;99315.69;;;16.35;100.00
24762;BME280;12865;51.934;10.330;2022-07-23T04:45:00;99306.28;;;16.39;100.00
24762;BME280;12865;51.934;10.330;2022-07-23T04:47:46;99305.06;;;16.41;100.00
24762;BME280;12865;51.934;10.330;2022-07-23T04:50:32;99279.56;;;16.29;100.00
24762;BME280;12865;51.934;10.330;2022-07-23T04:53:18;99274.91;;;16.23;100.00
24762;BME280;12865;51.934;10.330;2022-07-23T04:56:05;99289.66;;;16.27;100.00
24762;BME280;12865;51.934;10.330;2022-07-23T04:58:51;99314.72;;;16.28;100.00
24762;BME280;12865;51.934;10.330;2022-07-23T05:01:36;99318.91;;;16.30;100.00
24762;BME280;12865;51.934;10.330;2022-07-23T05:04:22;99318.75;;;16.32;100.00
24762;BME280;12865;51.934;10.330;2022-07-23T05:07:08;99329.31;;;16.33;100.00
24762;BME280;12865;51.934;10.330;2022-07-23T05:09:53;99331.19;;;16.33;100.00
24762;BME280;12865;51.934;10.330;2022-07-23T05:12:39;99330.97;;;16.42;100.00
24762;BME280;12865;51.934;10.330;2022-07-23T05:15:25;99328.25;;;16.50;100.00
24762;BME280;12865;51.934;10.330;2022-07-23T05:18:11;99317.63;;;16.57;100.00
24762;BME280;12865;51.934;10.330;2022-07-23T05:20:56;99321.63;;;16.69;100.00
24762;BME280;12865;51.934;10.330;2022-07-23T05:23:42;99314.06;;;16.73;100.00
24762;BME280;12865;51.934;10.330;2022-07-23T05:26:28;99314.66;;;16.83;100.00
24762;BME280;12865;51.934;10.330;2022-07-23T05:29:13;99325.38;;;16.91;100.00
24762;BME280;12865;51.934;10.330;2022-07-23T05:31:59;99336.09;;;16.99;100.00
24762;BME280;12865;51.934;10.330;2022-07-23T05:34:45;99326.63;;;17.03;100.00
24762;BME280;12865;51.934;10.330;2022-07-23T05:37:30;99329.72;;;17.00;100.00
24762;BME280;12865;51.934;10.330;2022-07-23T05:40:16;99323.44;;;17.08;100.00
24762;BME280;12865;51.934;10.330;2022-07-23T05:43:02;99322.09;;;17.04;100.00
24762;BME280;12865;51.934;10.330;2022-07-23T05:45:47;99316.47;;;17.13;100.00
24762;BME280;12865;51.934;10.330;2022-07-23T05:48:33;99323.84;;;17.19;100.00
24762;BME280;12865;51.934;10.330;2022-07-23T05:51:21;99324.13;;;17.24;100.00
24762;BME280;12865;51.934;10.330;2022-07-23T05:54:07;99320.47;;;17.17;100.00
24762;BME280;12865;51.934;10.330;2022-07-23T05:56:52;99322.81;;;17.20;100.00
24762;BME280;12865;51.934;10.330;2022-07-23T05:59:38;99326.19;;;17.22;100.00
24762;BME280;12865;51.934;10.330;2022-07-23T06:02:24;99339.13;;;17.27;100.00
24762;BME280;12865;51.934;10.330;2022-07-23T06:05:09;99331.53;;;17.31;100.00
24762;BME280;12865;51.934;10.330;2022-07-23T06:07:55;99327.47;;;17.04;100.00
24762;BME280;12865;51.934;10.330;2022-07-23T06:10:41;99341.19;;;16.94;100.00
24762;BME280;12865;51.934;10.330;2022-07-23T06:13:27;99338.63;;;17.01;100.00
24762;BME280;12865;51.934;10.330;2022-07-23T06:16:13;99340.06;;;16.88;100.00
24762;BME280;12865;51.934;10.330;2022-07-23T06:18:58;99344.34;;;16.75;100.00
24762;BME280;12865;51.934;10.330;2022-07-23T06:21:44;99336.94;;;17.00;100.00
24762;BME280;12865;51.934;10.330;2022-07-23T06:24:30;99342.25;;;17.16;100.00
24762;BME280;12865;51.934;10.330;2022-07-23T06:27:15;99341.75;;;17.35;100.00
24762;BME280;12865;51.934;10.330;2022-07-23T06:30:01;99348.50;;;17.31;100.00
24762;BME280;12865;51.934;10.330;2022-07-23T06:32:48;99341.03;;;17.41;100.00
24762;BME280;12865;51.934;10.330;2022-07-23T06:35:34;99348.28;;;17.41;100.00
24762;BME280;12865;51.934;10.330;2022-07-23T06:38:20;99344.28;;;17.37;100.00
24762;BME280;12865;51.934;10.330;2022-07-23T06:41:05;99343.44;;;17.59;100.00
24762;BME280;12865;51.934;10.330;2022-07-23T06:43:51;99331.59;;;17.60;100.00
24762;BME280;12865;51.934;10.330;2022-07-23T06:46:37;99328.22;;;17.66;100.00
24762;BME280;12865;51.934;10.330;2022-07-23T06:49:22;99344.19;;;17.67;100.00
24762;BME280;12865;51.934;10.330;2022-07-23T06:52:08;99348.81;;;17.96;100.00
24762;BME280;12865;51.934;10.330;2022-07-23T06:54:54;99354.81;;;18.07;100.00
24762;BME280;12865;51.934;10.330;2022-07-23T06:57:40;99348.38;;;18.08;100.00
24762;BME280;12865;51.934;10.330;2022-07-23T07:00:26;99358.16;;;18.23;100.00
24762;BME280;12865;51.934;10.330;2022-07-23T07:03:12;99347.19;;;18.39;100.00
24762;BME280;12865;51.934;10.330;2022-07-23T07:05:57;99344.00;;;18.51;100.00
24762;BME280;12865;51.934;10.330;2022-07-23T07:08:43;99348.88;;;18.70;100.00
24762;BME280;12865;51.934;10.330;2022-07-23T07:11:29;99349.56;;;18.78;99.60
24762;BME280;12865;51.934;10.330;2022-07-23T07:14:15;99357.25;;;18.75;96.13
24762;BME280;12865;51.934;10.330;2022-07-23T07:17:01;99352.75;;;18.82;95.76
24762;BME280;12865;51.934;10.330;2022-07-23T07:19:46;99363.56;;;18.67;90.31
24762;BME280;12865;51.934;10.330;2022-07-23T07:22:32;99354.34;;;18.47;94.91
24762;BME280;12865;51.934;10.330;2022-07-23T07:25:18;99362.66;;;18.75;95.18
24762;BME280;12865;51.934;10.330;2022-07-23T07:28:03;99371.31;;;18.70;92.99
24762;BME280;12865;51.934;10.330;2022-07-23T07:30:49;99369.91;;;18.74;90.55
24762;BME280;12865;51.934;10.330;2022-07-23T07:33:35;99375.66;;;18.86;89.72
24762;BME280;12865;51.934;10.330;2022-07-23T07:36:21;99385.66;;;19.07;89.87
24762;BME280;12865;51.934;10.330;2022-07-23T07:39:06;99384.88;;;18.92;88.14
24762;BME280;12865;51.934;10.330;2022-07-23T07:41:52;99388.78;;;18.89;84.77
24762;BME280;12865;51.934;10.330;2022-07-23T07:44:37;99390.06;;;19.08;84.33
24762;BME280;12865;51.934;10.330;2022-07-23T07:47:23;99395.63;;;19.06;83.78
24762;BME280;12865;51.934;10.330;2022-07-23T07:50:10;99392.94;;;19.42;84.28
24762;BME280;12865;51.934;10.330;2022-07-23T07:52:55;99392.19;;;19.48;83.11
24762;BME280;12865;51.934;10.330;2022-07-23T07:55:41;99394.59;;;19.43;87.13
24762;BME280;12865;51.934;10.330;2022-07-23T07:58:27;99398.84;;;19.67;82.73
24762;BME280;12865;51.934;10.330;2022-07-23T08:01:12;99398.31;;;19.57;84.98
24762;BME280;12865;51.934;10.330;2022-07-23T08:03:58;99406.78;;;19.33;83.57
24762;BME280;12865;51.934;10.330;2022-07-23T08:06:44;99399.75;;;19.38;83.60
24762;BME280;12865;51.934;10.330;2022-07-23T08:09:30;99405.16;;;19.53;83.88
24762;BME280;12865;51.934;10.330;2022-07-23T08:12:15;99410.22;;;19.63;80.74
24762;BME280;12865;51.934;10.330;2022-07-23T08:15:02;99417.38;;;19.70;77.64
24762;BME280;12865;51.934;10.330;2022-07-23T08:17:48;99412.38;;;19.67;75.27
24762;BME280;12865;51.934;10.330;2022-07-23T08:20:34;99404.81;;;19.63;76.20
24762;BME280;12865;51.934;10.330;2022-07-23T08:23:20;99416.09;;;19.66;74.81
24762;BME280;12865;51.934;10.330;2022-07-23T08:26:06;99421.88;;;19.63;75.62
24762;BME280;12865;51.934;10.330;2022-07-23T08:28:52;99424.81;;;19.62;74.49
24762;BME280;12865;51.934;10.330;2022-07-23T08:31:37;99417.97;;;19.66;74.13
24762;BME280;12865;51.934;10.330;2022-07-23T08:34:25;99415.97;;;19.95;74.90
24762;BME280;12865;51.934;10.330;2022-07-23T08:37:11;99416.84;;;20.03;75.28
24762;BME280;12865;51.934;10.330;2022-07-23T08:39:56;99414.50;;;20.21;74.44
24762;BME280;12865;51.934;10.330;2022-07-23T08:42:42;99404.28;;;20.44;74.69
24762;BME280;12865;51.934;10.330;2022-07-23T08:45:28;99422.63;;;20.49;74.18
24762;BME280;12865;51.934;10.330;2022-07-23T08:48:17;99418.44;;;20.18;74.16
24762;BME280;12865;51.934;10.330;2022-07-23T08:51:03;99425.41;;;20.06;74.16
24762;BME280;12865;51.934;10.330;2022-07-23T08:53:49;99424.47;;;20.20;74.44
24762;BME280;12865;51.934;10.330;2022-07-23T08:56:35;99421.59;;;20.50;73.43
24762;BME280;12865;51.934;10.330;2022-07-23T08:59:21;99422.03;;;20.25;74.19
24762;BME280;12865;51.934;10.330;2022-07-23T09:02:07;99421.84;;;20.55;73.53
24762;BME280;12865;51.934;10.330;2022-07-23T09:04:53;99426.13;;;20.43;75.05
24762;BME280;12865;51.934;10.330;2022-07-23T09:11:07;99433.38;;;20.35;73.19
24762;BME280;12865;51.934;10.330;2022-07-23T09:13:54;99429.41;;;20.10;73.96
24762;BME280;12865;51.934;10.330;2022-07-23T09:16:43;99420.53;;;19.95;75.13
24762;BME280;12865;51.934;10.330;2022-07-23T09:19:29;99427.03;;;20.28;73.29
24762;BME280;12865;51.934;10.330;2022-07-23T09:22:22;99423.28;;;20.85;72.00
24762;BME280;12865;51.934;10.330;2022-07-23T09:25:14;99421.97;;;20.74;72.54
24762;BME280;12865;51.934;10.330;2022-07-23T09:28:00;99427.47;;;20.88;71.00
24762;BME280;12865;51.934;10.330;2022-07-23T09:30:50;99422.94;;;21.01;68.00
24762;BME280;12865;51.934;10.330;2022-07-23T09:33:36;99422.44;;;20.85;68.63
24762;BME280;12865;51.934;10.330;2022-07-23T09:36:29;99424.63;;;21.02;67.62
24762;BME280;12865;51.934;10.330;2022-07-23T09:39:22;99423.47;;;21.25;66.91
24762;BME280;12865;51.934;10.330;2022-07-23T09:45:00;99424.03;;;21.94;64.01
24762;BME280;12865;51.934;10.330;2022-07-23T09:47:46;99423.66;;;22.04;63.84
24762;BME280;12865;51.934;10.330;2022-07-23T09:50:32;99418.66;;;22.07;64.51
24762;BME280;12865;51.934;10.330;2022-07-23T09:53:24;99428.97;;;21.44;65.24
24762;BME280;12865;51.934;10.330;2022-07-23T09:56:13;99423.72;;;21.30;66.42
24762;BME280;12865;51.934;10.330;2022-07-23T09:59:00;99425.19;;;21.45;65.44
24762;BME280;12865;51.934;10.330;2022-07-23T10:02:01;99431.81;;;21.23;64.58
24762;BME280;12865;51.934;10.330;2022-07-23T10:04:47;99430.75;;;20.83;66.07
24762;BME280;12865;51.934;10.330;2022-07-23T10:07:37;99431.25;;;20.93;67.96
24762;BME280;12865;51.934;10.330;2022-07-23T10:10:26;99434.34;;;21.31;66.20
24762;BME280;12865;51.934;10.330;2022-07-23T10:13:13;99415.00;;;21.61;64.57
24762;BME280;12865;51.934;10.330;2022-07-23T10:16:08;99422.41;;;22.00;62.83
24762;BME280;12865;51.934;10.330;2022-07-23T10:18:55;99412.97;;;22.48;62.18
24762;BME280;12865;51.934;10.330;2022-07-23T10:21:46;99421.16;;;22.28;62.61
24762;BME280;12865;51.934;10.330;2022-07-23T10:33:41;99421.78;;;22.17;62.40
24762;BME280;12865;51.934;10.330;2022-07-23T10:39:32;99409.00;;;21.72;64.16
24762;BME280;12865;51.934;10.330;2022-07-23T10:42:18;99416.50;;;21.76;64.30
24762;BME280;12865;51.934;10.330;2022-07-23T10:45:24;99416.50;;;21.89;62.63
24762;BME280;12865;51.934;10.330;2022-07-23T10:48:14;99403.38;;;22.19;62.27
24762;BME280;12865;51.934;10.330;2022-07-23T10:51:09;99411.50;;;22.46;61.70
24762;BME280;12865;51.934;10.330;2022-07-23T10:53:57;99409.53;;;22.86;59.80
24762;BME280;12865;51.934;10.330;2022-07-23T10:57:05;99411.25;;;22.67;59.96
24762;BME280;12865;51.934;10.330;2022-07-23T11:03:02;99406.59;;;22.94;58.59
24762;BME280;12865;51.934;10.330;2022-07-23T11:05:52;99415.22;;;22.84;58.05
24762;BME280;12865;51.934;10.330;2022-07-23T11:08:38;99405.16;;;23.36;56.54
24762;BME280;12865;51.934;10.330;2022-07-23T11:11:24;99408.31;;;23.71;54.60
24762;BME280;12865;51.934;10.330;2022-07-23T11:14:12;99414.19;;;23.30;55.51
24762;BME280;12865;51.934;10.330;2022-07-23T11:16:58;99418.72;;;22.98;56.55
24762;BME280;12865;51.934;10.330;2022-07-23T11:22:58;99405.19;;;23.29;56.43
24762;BME280;12865;51.934;10.330;2022-07-23T11:25:45;99406.97;;;23.48;55.24
24762;BME280;12865;51.934;10.330;2022-07-23T11:28:31;99413.63;;;23.59;53.19
24762;BME280;12865;51.934;10.330;2022-07-23T11:31:17;99414.16;;;23.74;53.40
24762;BME280;12865;51.934;10.330;2022-07-23T11:37:46;99406.22;;;23.28;53.88
24762;BME280;12865;51.934;10.330;2022-07-23T11:40:33;99399.28;;;23.39;54.55
24762;BME280;12865;51.934;10.330;2022-07-23T11:43:20;99404.00;;;23.57;53.96
24762;BME280;12865;51.934;10.330;2022-07-23T11:46:09;99401.00;;;23.33;55.83
24762;BME280;12865;51.934;10.330;2022-07-23T11:49:02;99389.03;;;23.34;56.14
24762;BME280;12865;51.934;10.330;2022-07-23T11:52:12;99392.25;;;23.63;56.54
24762;BME280;12865;51.934;10.330;2022-07-23T11:55:06;99402.13;;;24.13;54.27
24762;BME280;12865;51.934;10.330;2022-07-23T11:57:53;99398.72;;;23.93;54.88
24762;BME280;12865;51.934;10.330;2022-07-23T12:00:41;99400.06;;;24.09;53.87
24762;BME280;12865;51.934;10.330;2022-07-23T12:03:27;99400.44;;;24.12;53.27
24762;BME280;12865;51.934;10.330;2022-07-23T12:06:13;99399.63;;;24.37;53.87
24762;BME280;12865;51.934;10.330;2022-07-23T12:08:58;99399.91;;;24.29;52.90
24762;BME280;12865;51.934;10.330;2022-07-23T12:11:58;99399.09;;;24.46;51.99
24762;BME280;12865;51.934;10.330;2022-07-23T12:14:49;99399.56;;;24.43;52.13
24762;BME280;12865;51.934;10.330;2022-07-23T12:17:36;99403.75;;;24.64;51.01
24762;BME280;12865;51.934;10.330;2022-07-23T12:20:25;99398.59;;;24.38;51.44
24762;BME280;12865;51.934;10.330;2022-07-23T12:23:12;99402.28;;;24.18;52.28
24762;BME280;12865;51.934;10.330;2022-07-23T12:26:02;99405.25;;;23.61;53.34
24762;BME280;12865;51.934;10.330;2022-07-23T12:28:52;99399.06;;;24.03;53.90
24762;BME280;12865;51.934;10.330;2022-07-23T12:31:38;99394.78;;;23.89;52.78
24762;BME280;12865;51.934;10.330;2022-07-23T12:34:24;99407.63;;;23.82;53.18
24762;BME280;12865;51.934;10.330;2022-07-23T12:37:28;99394.06;;;24.00;53.76
24762;BME280;12865;51.934;10.330;2022-07-23T12:40:25;99403.16;;;24.62;52.31
24762;BME280;12865;51.934;10.330;2022-07-23T12:48:55;99394.34;;;23.92;52.83
24762;BME280;12865;51.934;10.330;2022-07-23T12:51:42;99398.47;;;23.70;52.75
24762;BME280;12865;51.934;10.330;2022-07-23T12:54:28;99403.50;;;23.73;52.94
24762;BME280;12865;51.934;10.330;2022-07-23T12:57:14;99399.72;;;23.74;52.89
24762;BME280;12865;51.934;10.330;2022-07-23T13:00:09;99401.56;;;24.05;52.20
24762;BME280;12865;51.934;10.330;2022-07-23T13:02:55;99397.06;;;23.92;52.98
24762;BME280;12865;51.934;10.330;2022-07-23T13:05:41;99413.00;;;24.13;51.62
24762;BME280;12865;51.934;10.330;2022-07-23T13:08:29;99410.66;;;24.23;52.15
24762;BME280;12865;51.934;10.330;2022-07-23T13:11:15;99412.56;;;24.23;51.55
24762;BME280;12865;51.934;10.330;2022-07-23T13:14:01;99406.91;;;24.18;51.46
24762;BME280;12865;51.934;10.330;2022-07-23T13:16:51;99399.94;;;24.47;51.57
24762;BME280;12865;51.934;10.330;2022-07-23T13:19:37;99409.00;;;24.65;50.69
24762;BME280;12865;51.934;10.330;2022-07-23T13:22:23;99409.69;;;24.79;50.55
24762;BME280;12865;51.934;10.330;2022-07-23T13:25:09;99409.06;;;24.77;50.82
24762;BME280;12865;51.934;10.330;2022-07-23T13:27:54;99416.75;;;25.05;50.50
24762;BME280;12865;51.934;10.330;2022-07-23T13:30:40;99417.94;;;24.73;50.14
24762;BME280;12865;51.934;10.330;2022-07-23T13:33:26;99403.41;;;24.79;51.23
24762;BME280;12865;51.934;10.330;2022-07-23T13:36:12;99398.16;;;24.77;49.87
24762;BME280;12865;51.934;10.330;2022-07-23T13:38:58;99401.72;;;24.78;50.01
24762;BME280;12865;51.934;10.330;2022-07-23T13:41:44;99401.28;;;24.81;49.86
24762;BME280;12865;51.934;10.330;2022-07-23T13:44:29;99407.69;;;24.68;49.54
24762;BME280;12865;51.934;10.330;2022-07-23T13:47:15;99400.34;;;24.50;50.28
24762;BME280;12865;51.934;10.330;2022-07-23T13:50:01;99404.66;;;24.76;49.51
24762;BME280;12865;51.934;10.330;2022-07-23T13:52:46;99405.38;;;24.90;50.45
24762;BME280;12865;51.934;10.330;2022-07-23T13:55:33;99413.59;;;24.83;49.87
24762;BME280;12865;51.934;10.330;2022-07-23T13:58:19;99409.97;;;25.26;48.58
24762;BME280;12865;51.934;10.330;2022-07-23T14:01:05;99409.19;;;25.07;48.71
24762;BME280;12865;51.934;10.330;2022-07-23T14:03:50;99402.16;;;24.56;49.67
24762;BME280;12865;51.934;10.330;2022-07-23T14:06:36;99405.94;;;24.37;49.62
24762;BME280;12865;51.934;10.330;2022-07-23T14:09:22;99413.47;;;24.78;48.84
24762;BME280;12865;51.934;10.330;2022-07-23T14:12:08;99409.34;;;24.51;49.33
24762;BME280;12865;51.934;10.330;2022-07-23T14:14:54;99415.69;;;24.88;48.75
24762;BME280;12865;51.934;10.330;2022-07-23T14:17:42;99412.09;;;24.69;49.05
24762;BME280;12865;51.934;10.330;2022-07-23T14:20:28;99410.84;;;24.90;49.11
24762;BME280;12865;51.934;10.330;2022-07-23T14:23:13;99413.84;;;25.36;47.68
24762;BME280;12865;51.934;10.330;2022-07-23T14:25:59;99414.00;;;25.53;46.55
24762;BME280;12865;51.934;10.330;2022-07-23T14:28:45;99414.91;;;25.35;46.44
24762;BME280;12865;51.934;10.330;2022-07-23T14:31:31;99415.50;;;25.67;46.15
24762;BME280;12865;51.934;10.330;2022-07-23T14:34:16;99420.31;;;25.06;46.67
24762;BME280;12865;51.934;10.330;2022-07-23T14:37:03;99409.22;;;24.64;47.11
24762;BME280;12865;51.934;10.330;2022-07-23T14:39:48;99409.00;;;24.65;47.78
24762;BME280;12865;51.934;10.330;2022-07-23T14:42:34;99423.94;;;25.18;47.37
24762;BME280;12865;51.934;10.330;2022-07-23T14:45:20;99410.91;;;25.20;47.26
24762;BME280;12865;51.934;10.330;2022-07-23T14:48:05;99422.91;;;25.30;47.06
24762;BME280;12865;51.934;10.330;2022-07-23T14:50:51;99424.28;;;25.39;45.97
24762;BME280;12865;51.934;10.330;2022-07-23T14:53:37;99415.59;;;25.13;46.29
24762;BME280;12865;51.934;10.330;2022-07-23T14:56:23;99429.00;;;25.32;46.04
24762;BME280;12865;51.934;10.330;2022-07-23T14:59:09;99416.09;;;25.58;45.82
24762;BME280;12865;51.934;10.330;2022-07-23T15:01:54;99422.97;;;25.60;45.42